createdAt,value
2019-02-16T00:01:10.056Z,90.85
2019-02-16T00:03:39.251Z,90.33
2019-02-16T00:06:09.609Z,89.71
2019-02-16T00:08:38.790Z,89.48
2019-02-16T00:11:08.066Z,88.88
2019-02-16T00:13:37.397Z,88.51
2019-02-16T00:16:06.534Z,89.00
2019-02-16T00:18:35.738Z,88.18
2019-02-16T00:21:04.903Z,89.63
2019-02-16T00:23:34.185Z,89.49
2019-02-16T00:26:03.460Z,89.50
2019-02-16T00:28:32.553Z,88.71
2019-02-16T00:31:01.726Z,89.63
2019-02-16T00:33:30.961Z,89.80
2019-02-16T00:36:02.229Z,89.46
2019-02-16T00:38:31.467Z,88.93
2019-02-16T00:41:00.834Z,89.97
2019-02-16T00:43:29.917Z,90.32
2019-02-16T00:45:59.215Z,90.46
2019-02-16T00:48:28.401Z,90.05
2019-02-16T00:50:57.715Z,89.80
2019-02-16T00:53:26.798Z,89.83
2019-02-16T00:55:56.056Z,89.83
2019-02-16T00:58:25.264Z,89.51
2019-02-16T01:00:54.709Z,90.76
2019-02-16T01:03:23.802Z,91.13
2019-02-16T01:05:52.981Z,92.16
2019-02-16T01:08:22.193Z,92.50
2019-02-16T01:10:52.406Z,93.45
2019-02-16T01:13:21.493Z,92.62
2019-02-16T01:15:50.642Z,92.12
2019-02-16T01:18:24.635Z,91.54
2019-02-16T01:20:53.816Z,91.64
2019-02-16T01:23:22.925Z,91.43
2019-02-16T01:25:53.203Z,90.04
2019-02-16T01:28:23.828Z,88.93
2019-02-16T01:30:52.940Z,89.07
2019-02-16T01:33:22.012Z,88.98
2019-02-16T01:35:51.109Z,88.79
2019-02-16T01:38:22.420Z,89.52
2019-02-16T01:40:51.646Z,89.19
2019-02-16T01:43:20.787Z,89.05
2019-02-16T01:45:49.936Z,88.42
2019-02-16T01:48:19.040Z,88.22
2019-02-16T01:50:48.111Z,87.62
2019-02-16T01:53:17.153Z,87.32
2019-02-16T01:55:47.541Z,87.06
2019-02-16T01:58:16.669Z,87.29
2019-02-16T02:00:45.732Z,87.45
2019-02-16T02:03:14.832Z,87.60
2019-02-16T02:05:43.973Z,87.65
2019-02-16T02:08:13.221Z,87.80
2019-02-16T02:10:42.307Z,87.19
2019-02-16T02:13:11.416Z,87.37
2019-02-16T02:15:40.470Z,87.70
2019-02-16T02:18:09.520Z,87.85
2019-02-16T02:20:38.640Z,88.86
2019-02-16T02:23:07.751Z,89.81
2019-02-16T02:25:36.813Z,90.09
2019-02-16T02:28:05.918Z,91.19
2019-02-16T02:30:34.996Z,91.14
2019-02-16T02:33:04.158Z,91.38
2019-02-16T02:35:33.291Z,91.19
2019-02-16T02:38:02.400Z,90.94
2019-02-16T02:40:31.446Z,90.96
2019-02-16T02:43:00.599Z,91.30
2019-02-16T02:45:29.675Z,91.57
2019-02-16T02:47:58.845Z,91.73
2019-02-16T02:50:27.911Z,91.57
2019-02-16T02:52:57.033Z,91.30
2019-02-16T02:55:26.184Z,91.04
2019-02-16T02:57:55.263Z,88.71
2019-02-16T03:00:24.356Z,86.87
2019-02-16T03:02:53.435Z,87.85
2019-02-16T03:05:22.657Z,88.56
2019-02-16T03:07:51.773Z,88.08
2019-02-16T03:10:20.918Z,88.59
2019-02-16T03:12:50.013Z,88.61
2019-02-16T03:15:19.064Z,90.31
2019-02-16T03:17:48.219Z,89.89
2019-02-16T03:20:17.334Z,89.24
2019-02-16T03:23:21.930Z,88.55
2019-02-16T03:26:28.318Z,88.10
2019-02-16T03:29:12.604Z,88.62
2019-02-16T03:32:16.602Z,89.58
2019-02-16T03:35:16.643Z,90.27
2019-02-16T03:38:35.772Z,90.16
2019-02-16T03:41:05.153Z,89.44
2019-02-16T03:43:34.346Z,87.85
2019-02-16T03:46:03.576Z,87.65
2019-02-16T03:48:33.444Z,87.24
2019-02-16T03:51:03.057Z,86.95
2019-02-16T03:53:32.156Z,87.94
2019-02-16T03:56:01.245Z,88.04
2019-02-16T03:58:30.310Z,87.70
2019-02-16T04:00:59.457Z,87.32
2019-02-16T04:03:31.213Z,86.71
2019-02-16T04:06:00.358Z,86.72
2019-02-16T04:08:29.454Z,85.82
2019-02-16T04:10:58.517Z,86.67
2019-02-16T04:13:27.660Z,86.53
2019-02-16T04:15:56.799Z,86.93
2019-02-16T04:18:25.860Z,87.38
2019-02-16T04:20:55.033Z,86.36
2019-02-16T04:23:24.145Z,86.99
2019-02-16T04:25:53.275Z,86.41
2019-02-16T04:28:22.336Z,85.90
2019-02-16T04:30:51.406Z,87.86
2019-02-16T04:33:20.455Z,88.05
2019-02-16T04:35:51.390Z,88.14
2019-02-16T04:38:20.408Z,89.58
2019-02-16T04:40:49.528Z,91.06
2019-02-16T04:43:18.659Z,90.52
2019-02-16T04:45:47.761Z,89.78
2019-02-16T04:48:18.033Z,90.01
2019-02-16T04:50:47.152Z,89.62
2019-02-16T04:53:16.270Z,88.78
2019-02-16T04:55:45.386Z,88.73
2019-02-16T04:58:14.501Z,87.68
2019-02-16T05:00:43.600Z,87.58
2019-02-16T05:03:12.707Z,87.34
2019-02-16T05:05:41.757Z,86.98
2019-02-16T05:08:13.102Z,86.91
2019-02-16T05:10:44.313Z,86.52
2019-02-16T05:13:13.366Z,86.56
2019-02-16T05:15:42.470Z,85.64
2019-02-16T05:18:11.515Z,85.97
2019-02-16T05:20:40.640Z,86.33
2019-02-16T05:23:09.684Z,85.85
2019-02-16T05:25:38.748Z,86.34
2019-02-16T05:28:07.824Z,86.17
2019-02-16T05:30:37.925Z,86.19
2019-02-16T05:33:07.057Z,86.11
2019-02-16T05:35:38.386Z,85.79
2019-02-16T05:38:07.552Z,85.98
2019-02-16T05:40:36.787Z,86.54
2019-02-16T05:43:05.849Z,86.49
2019-02-16T05:45:34.897Z,86.50
2019-02-16T05:48:04.003Z,86.02
2019-02-16T05:50:33.150Z,86.39
2019-02-16T05:53:02.237Z,86.34
2019-02-16T05:55:31.263Z,86.04
2019-02-16T05:58:00.481Z,87.89
2019-02-16T06:00:30.812Z,89.57
2019-02-16T06:02:59.921Z,90.07
2019-02-16T06:05:28.993Z,89.86
2019-02-16T06:07:58.110Z,88.94
2019-02-16T06:10:27.177Z,88.17
2019-02-16T06:12:56.360Z,89.27
2019-02-16T06:15:25.492Z,89.30
2019-02-16T06:17:54.603Z,90.11
2019-02-16T06:20:23.820Z,90.45
2019-02-16T06:22:53.020Z,90.38
2019-02-16T06:25:24.189Z,89.98
2019-02-16T06:27:53.374Z,89.52
2019-02-16T06:30:22.468Z,88.56
2019-02-16T06:32:53.986Z,87.17
2019-02-16T06:35:46.705Z,87.37
2019-02-16T06:38:17.389Z,85.96
2019-02-16T06:40:48.957Z,86.71
2019-02-16T06:43:18.607Z,86.01
2019-02-16T06:45:49.199Z,85.82
2019-02-16T06:48:19.842Z,85.86
2019-02-16T06:50:49.105Z,85.86
2019-02-16T06:53:18.268Z,85.96
2019-02-16T06:56:00.677Z,86.16
2019-02-16T06:58:30.046Z,86.41
2019-02-16T07:00:59.326Z,86.46
2019-02-16T07:03:28.644Z,86.77
2019-02-16T07:05:57.699Z,87.10
2019-02-16T07:08:26.839Z,87.00
2019-02-16T07:10:57.949Z,87.50
2019-02-16T07:13:27.139Z,87.43
2019-02-16T07:16:13.966Z,85.84
2019-02-16T07:18:47.971Z,88.93
2019-02-16T07:21:17.316Z,89.54
2019-02-16T07:23:47.042Z,87.93
2019-02-16T07:26:16.112Z,87.07
2019-02-16T07:28:46.688Z,86.91
2019-02-16T07:31:16.043Z,86.21
2019-02-16T07:33:45.407Z,85.64
2019-02-16T07:36:16.838Z,86.89
2019-02-16T07:38:47.261Z,86.25
2019-02-16T07:41:16.489Z,86.98
2019-02-16T07:44:22.964Z,87.12
2019-02-16T07:46:56.996Z,86.18
2019-02-16T07:49:35.715Z,86.64
2019-02-16T07:52:25.497Z,87.25
2019-02-16T07:55:01.973Z,87.55
2019-02-16T07:57:50.163Z,86.89
2019-02-16T08:00:33.375Z,85.60
2019-02-16T08:03:16.550Z,86.03
2019-02-16T08:06:05.267Z,85.91
2019-02-16T08:08:52.559Z,85.54
2019-02-16T08:11:39.682Z,85.20
2019-02-16T08:14:35.010Z,84.53
2019-02-16T08:17:18.121Z,84.18
2019-02-16T08:20:06.179Z,82.11
2019-02-16T08:22:43.994Z,81.69
2019-02-16T08:25:35.970Z,75.52
2019-02-16T08:28:16.078Z,79.68
2019-02-16T08:31:13.225Z,77.35
2019-02-16T08:34:15.687Z,75.83
2019-02-16T08:37:13.019Z,79.75
2019-02-16T08:40:02.131Z,83.22
2019-02-16T08:42:42.584Z,84.37
2019-02-16T08:45:23.343Z,83.43
2019-02-16T08:48:13.961Z,83.57
2019-02-16T08:50:50.298Z,83.16
2019-02-16T08:53:50.270Z,85.12
2019-02-16T08:56:36.990Z,80.67
2019-02-16T08:59:23.726Z,77.34
2019-02-16T09:02:17.676Z,75.73
2019-02-16T09:05:14.632Z,74.93
2019-02-16T09:07:54.761Z,78.45
2019-02-16T09:10:52.010Z,77.59
2019-02-16T09:13:55.236Z,71.39
2019-02-16T09:16:46.172Z,75.80
2019-02-16T09:19:46.589Z,73.13
2019-02-16T09:22:29.983Z,75.14
2019-02-16T09:25:24.281Z,71.84
2019-02-16T09:28:08.734Z,74.77
2019-02-16T09:30:50.836Z,70.61
2019-02-16T09:33:37.681Z,70.86
2019-02-16T09:36:40.825Z,69.47
2019-02-16T09:39:40.854Z,70.24
2019-02-16T09:42:22.484Z,67.23
2019-02-16T09:45:09.260Z,65.88
2019-02-16T09:47:54.645Z,69.06
2019-02-16T09:50:34.372Z,69.29
2019-02-16T09:53:25.696Z,70.03
2019-02-16T09:56:12.261Z,67.84
2019-02-16T09:59:03.769Z,63.22
2019-02-16T10:01:41.308Z,68.08
2019-02-16T10:04:15.676Z,63.60
2019-02-16T10:07:02.360Z,64.32
2019-02-16T10:09:37.403Z,61.20
2019-02-16T10:12:21.374Z,60.01
2019-02-16T10:15:21.455Z,61.35
2019-02-16T10:18:29.294Z,60.76
2019-02-16T10:21:11.333Z,60.93
2019-02-16T10:24:17.900Z,61.04
2019-02-16T10:27:03.187Z,61.19
2019-02-16T10:29:50.105Z,59.75
2019-02-16T10:32:30.673Z,60.24
2019-02-16T10:35:13.436Z,60.88
2019-02-16T10:37:57.506Z,58.62
2019-02-16T10:40:45.488Z,58.12
2019-02-16T10:43:51.903Z,60.06
2019-02-16T10:46:55.694Z,55.60
2019-02-16T10:49:33.498Z,61.28
2019-02-16T10:52:21.505Z,56.87
2019-02-16T10:55:20.241Z,58.02
2019-02-16T10:58:08.309Z,55.42
2019-02-16T11:01:02.564Z,56.07
2019-02-16T11:03:42.456Z,57.03
2019-02-16T11:06:23.654Z,54.66
2019-02-16T11:09:10.239Z,54.92
2019-02-16T11:11:58.296Z,53.93
2019-02-16T11:14:49.543Z,54.08
2019-02-16T11:17:34.709Z,55.78
2019-02-16T11:20:25.534Z,53.68
2019-02-16T11:23:14.266Z,53.10
2019-02-16T11:26:11.304Z,52.63
2019-02-16T11:29:11.219Z,55.36
2019-02-16T11:32:17.541Z,56.10
2019-02-16T11:34:53.321Z,52.89
2019-02-16T11:37:30.879Z,48.07
2019-02-16T11:40:11.871Z,45.79
2019-02-16T11:42:59.648Z,46.81
2019-02-16T11:46:01.743Z,45.92
2019-02-16T11:48:51.853Z,47.44
2019-02-16T11:51:30.268Z,46.55
2019-02-16T11:54:09.826Z,45.87
2019-02-16T11:56:55.621Z,45.51
2019-02-16T11:59:43.704Z,45.37
2019-02-16T12:02:39.833Z,44.87
2019-02-16T12:05:16.598Z,45.29
2019-02-16T12:07:54.569Z,43.95
2019-02-16T12:10:48.430Z,45.31
2019-02-16T12:13:42.665Z,44.25
2019-02-16T12:16:48.669Z,43.00
2019-02-16T12:19:31.966Z,42.71
2019-02-16T12:22:08.116Z,43.03
2019-02-16T12:25:05.726Z,41.94
2019-02-16T12:27:38.829Z,41.26
2019-02-16T12:30:23.722Z,42.08
2019-02-16T12:33:10.850Z,41.31
2019-02-16T12:35:58.985Z,42.42
2019-02-16T12:38:54.196Z,41.85
2019-02-16T12:41:53.231Z,41.35
2019-02-16T12:44:43.484Z,41.90
2019-02-16T12:47:40.378Z,42.71
2019-02-16T12:50:32.629Z,39.54
2019-02-16T12:53:20.667Z,38.94
2019-02-16T12:56:16.974Z,39.80
2019-02-16T12:59:03.354Z,40.57
2019-02-16T13:01:54.035Z,40.41
2019-02-16T13:04:40.555Z,40.19
2019-02-16T13:07:27.738Z,40.75
2019-02-16T13:10:24.770Z,39.78
2019-02-16T13:13:14.982Z,40.17
2019-02-16T13:15:54.919Z,39.41
2019-02-16T13:18:48.839Z,40.03
2019-02-16T13:21:32.952Z,40.79
2019-02-16T13:24:09.535Z,40.85
2019-02-16T13:26:52.318Z,41.07
2019-02-16T13:29:49.571Z,41.45
2019-02-16T13:32:37.611Z,41.60
2019-02-16T13:35:28.552Z,40.13
2019-02-16T13:38:28.555Z,41.57
2019-02-16T13:41:16.078Z,42.26
2019-02-16T13:44:04.060Z,41.51
2019-02-16T13:46:51.068Z,41.74
2019-02-16T13:49:43.849Z,41.98
2019-02-16T13:52:20.262Z,41.85
2019-02-16T13:55:00.959Z,42.53
2019-02-16T13:57:47.620Z,41.63
2019-02-16T14:00:24.522Z,42.24
2019-02-16T14:03:12.589Z,42.29
2019-02-16T14:05:56.565Z,42.51
2019-02-16T14:08:35.814Z,42.24
2019-02-16T14:11:12.026Z,42.93
2019-02-16T14:14:03.882Z,42.83
2019-02-16T14:16:59.947Z,43.69
2019-02-16T14:19:31.460Z,43.30
2019-02-16T14:22:00.534Z,42.87
2019-02-16T14:24:48.185Z,43.13
2019-02-16T14:27:18.304Z,43.37
2019-02-16T14:29:47.539Z,43.31
2019-02-16T14:32:16.742Z,43.01
2019-02-16T14:34:47.004Z,44.02
2019-02-16T14:37:30.992Z,44.53
2019-02-16T14:40:00.309Z,44.71
2019-02-16T14:42:31.653Z,44.45
2019-02-16T14:45:00.760Z,43.64
2019-02-16T14:47:29.872Z,44.14
2019-02-16T14:49:59.023Z,45.03
2019-02-16T14:52:30.360Z,45.89
2019-02-16T14:55:06.737Z,44.84
2019-02-16T14:57:35.870Z,44.38
2019-02-16T15:00:07.127Z,45.13
2019-02-16T15:02:36.241Z,44.11
2019-02-16T15:05:05.416Z,44.52
2019-02-16T15:07:34.673Z,45.86
2019-02-16T15:10:03.937Z,46.15
2019-02-16T15:12:32.998Z,46.13
2019-02-16T15:15:04.316Z,46.62
2019-02-16T15:17:33.449Z,46.87
2019-02-16T15:20:02.543Z,46.91
2019-02-16T15:22:35.596Z,47.02
2019-02-16T15:25:05.139Z,47.31
2019-02-16T15:27:34.226Z,49.05
2019-02-16T15:30:04.869Z,49.91
2019-02-16T15:32:33.983Z,51.58
2019-02-16T15:35:03.091Z,52.96
2019-02-16T15:37:32.199Z,52.41
2019-02-16T15:40:03.629Z,53.05
2019-02-16T15:42:32.789Z,55.11
2019-02-16T15:45:01.970Z,54.55
2019-02-16T15:47:31.038Z,53.13
2019-02-16T15:50:00.329Z,55.58
2019-02-16T15:52:29.512Z,54.72
2019-02-16T15:54:58.553Z,56.72
2019-02-16T15:57:29.709Z,56.59
2019-02-16T16:00:01.118Z,56.64
2019-02-16T16:02:30.262Z,57.29
2019-02-16T16:04:59.407Z,57.11
2019-02-16T16:07:28.452Z,57.43
2019-02-16T16:10:22.812Z,58.62
2019-02-16T16:13:09.558Z,60.02
2019-02-16T16:16:03.536Z,61.55
2019-02-16T16:18:56.263Z,62.29
2019-02-16T16:21:45.835Z,63.21
2019-02-16T16:24:33.003Z,62.80
2019-02-16T16:27:21.013Z,64.50
2019-02-16T16:30:18.172Z,65.54
2019-02-16T16:32:59.246Z,66.50
2019-02-16T16:35:46.485Z,67.23
2019-02-16T16:38:37.578Z,67.96
2019-02-16T16:41:24.551Z,69.12
2019-02-16T16:44:19.649Z,69.51
2019-02-16T16:47:22.730Z,70.31
2019-02-16T16:50:18.699Z,70.76
2019-02-16T16:53:01.849Z,71.60
2019-02-16T16:55:59.119Z,71.60
2019-02-16T16:58:51.683Z,71.15
2019-02-16T17:01:47.867Z,72.02
2019-02-16T17:04:25.536Z,73.02
2019-02-16T17:07:12.287Z,73.54
2019-02-16T17:10:00.649Z,73.77
2019-02-16T17:13:00.903Z,74.57
2019-02-16T17:15:47.061Z,75.35
2019-02-16T17:18:34.011Z,75.60
2019-02-16T17:21:14.336Z,75.59
2019-02-16T17:24:08.390Z,76.57
2019-02-16T17:26:55.020Z,76.80
2019-02-16T17:29:45.607Z,75.04
2019-02-16T17:32:30.526Z,76.67
2019-02-16T17:35:34.318Z,75.25
2019-02-16T17:38:21.900Z,76.23
2019-02-16T17:41:02.029Z,77.53
2019-02-16T17:43:47.797Z,77.85
2019-02-16T17:46:48.958Z,78.45
2019-02-16T17:49:37.536Z,79.12
2019-02-16T17:52:28.203Z,79.47
2019-02-16T17:55:11.835Z,79.90
2019-02-16T17:57:54.177Z,80.58
2019-02-16T18:00:47.151Z,80.76
2019-02-16T18:03:44.336Z,80.44
2019-02-16T18:06:23.347Z,81.12
2019-02-16T18:09:08.991Z,81.03
2019-02-16T18:11:52.979Z,81.56
2019-02-16T18:14:38.937Z,81.63
2019-02-16T18:17:33.053Z,82.09
2019-02-16T18:20:08.529Z,82.10
2019-02-16T18:22:56.577Z,81.83
2019-02-16T18:25:35.190Z,82.53
2019-02-16T18:28:23.238Z,82.39
2019-02-16T18:31:11.259Z,81.91
2019-02-16T18:34:13.200Z,82.37
2019-02-16T18:37:06.438Z,83.36
2019-02-16T18:39:58.672Z,83.72
2019-02-16T18:42:47.328Z,84.70
2019-02-16T18:45:35.378Z,84.85
2019-02-16T18:48:27.787Z,84.20
2019-02-16T18:51:15.740Z,84.28
2019-02-16T18:54:04.080Z,84.44
2019-02-16T18:56:43.727Z,84.31
2019-02-16T18:59:40.979Z,84.16
2019-02-16T19:02:36.037Z,83.86
2019-02-16T19:05:30.908Z,85.00
2019-02-16T19:08:10.026Z,84.83
2019-02-16T19:10:49.042Z,85.88
2019-02-16T19:13:36.539Z,85.74
2019-02-16T19:16:30.533Z,86.06
2019-02-16T19:19:19.351Z,86.41
2019-02-16T19:22:08.185Z,86.72
2019-02-16T19:24:56.227Z,86.22
2019-02-16T19:27:47.633Z,87.17
2019-02-16T19:30:33.470Z,87.06
2019-02-16T19:33:23.514Z,86.67
2019-02-16T19:36:08.167Z,85.94
2019-02-16T19:39:11.377Z,85.53
2019-02-16T19:41:50.118Z,85.42
2019-02-16T19:44:35.722Z,87.18
2019-02-16T19:47:28.354Z,87.27
2019-02-16T19:50:15.355Z,87.96
2019-02-16T19:52:58.575Z,87.57
2019-02-16T19:55:58.652Z,87.72
2019-02-16T19:58:46.687Z,87.90
2019-02-16T20:01:24.303Z,86.53
2019-02-16T20:04:14.738Z,84.90
2019-02-16T20:06:52.973Z,85.86
2019-02-16T20:09:39.798Z,86.14
2019-02-16T20:12:36.752Z,86.49
2019-02-16T20:15:23.627Z,86.96
2019-02-16T20:18:00.356Z,87.72
2019-02-16T20:20:34.924Z,87.46
2019-02-16T20:23:28.725Z,86.95
2019-02-16T20:26:22.840Z,87.14
2019-02-16T20:29:01.238Z,87.89
2019-02-16T20:31:52.344Z,88.45
2019-02-16T20:34:27.696Z,88.31
2019-02-16T20:37:19.253Z,87.74
2019-02-16T20:40:07.227Z,87.55
2019-02-16T20:43:05.861Z,88.59
2019-02-16T20:45:46.462Z,88.61
2019-02-16T20:48:40.653Z,87.93
2019-02-16T20:51:19.537Z,87.53
2019-02-16T20:54:00.333Z,86.80
2019-02-16T20:56:57.450Z,88.30
2019-02-16T20:59:51.531Z,88.34
2019-02-16T21:02:45.536Z,87.44
2019-02-16T21:05:27.657Z,88.37
2019-02-16T21:08:27.900Z,89.01
2019-02-16T21:11:12.363Z,88.79
2019-02-16T21:14:03.435Z,88.14
2019-02-16T21:16:59.237Z,88.62
2019-02-16T21:19:56.469Z,88.79
2019-02-16T21:22:50.437Z,88.63
2019-02-16T21:25:37.366Z,88.80
2019-02-16T21:28:15.797Z,89.81
2019-02-16T21:31:05.515Z,89.69
2019-02-16T21:33:43.225Z,89.39
2019-02-16T21:36:42.423Z,88.69
2019-02-16T21:39:34.953Z,88.71
2019-02-16T21:42:23.215Z,88.09
2019-02-16T21:45:29.744Z,89.60
2019-02-16T21:48:16.840Z,89.97
2019-02-16T21:51:10.819Z,89.94
2019-02-16T21:53:58.816Z,88.97
2019-02-16T21:56:53.522Z,88.36
2019-02-16T21:59:41.553Z,87.79
2019-02-16T22:02:32.627Z,88.40
2019-02-16T22:05:19.494Z,88.95
2019-02-16T22:08:07.878Z,88.51
2019-02-16T22:11:04.926Z,88.48
2019-02-16T22:13:33.954Z,88.04
2019-02-16T22:16:06.041Z,87.65
2019-02-16T22:18:35.140Z,87.56
2019-02-16T22:21:04.233Z,87.78
2019-02-16T22:23:33.456Z,87.43
2019-02-16T22:26:02.625Z,88.34
2019-02-16T22:28:31.872Z,88.09
2019-02-16T22:31:00.926Z,88.41
2019-02-16T22:33:30.017Z,88.03
2019-02-16T22:35:59.458Z,87.87
2019-02-16T22:38:28.585Z,88.01
2019-02-16T22:40:58.443Z,87.95
2019-02-16T22:43:27.563Z,88.24
2019-02-16T22:45:57.734Z,88.69
2019-02-16T22:48:26.927Z,88.75
2019-02-16T22:50:56.101Z,89.72
2019-02-16T22:53:27.025Z,89.77
2019-02-16T22:55:56.101Z,88.98
2019-02-16T22:58:28.850Z,89.21
2019-02-16T23:00:56.533Z,90.06
2019-02-16T23:03:26.864Z,90.19
2019-02-16T23:05:56.061Z,89.27
2019-02-16T23:08:26.189Z,88.71
2019-02-16T23:10:56.185Z,88.57
2019-02-16T23:13:25.398Z,88.33
2019-02-16T23:15:54.568Z,89.14
2019-02-16T23:18:23.688Z,89.75
2019-02-16T23:20:54.647Z,90.30
2019-02-16T23:23:23.746Z,90.04
2019-02-16T23:25:52.946Z,89.96
2019-02-16T23:28:22.113Z,89.66
2019-02-16T23:30:51.249Z,88.69
2019-02-16T23:33:20.380Z,88.33
2019-02-16T23:35:49.512Z,87.78
2019-02-16T23:38:18.683Z,88.17
2019-02-16T23:40:47.796Z,88.54
2019-02-16T23:43:16.925Z,89.12
2019-02-16T23:45:46.552Z,89.39
2019-02-16T23:48:15.698Z,89.50
2019-02-16T23:50:44.740Z,89.46
2019-02-16T23:53:16.280Z,88.57
2019-02-16T23:55:45.828Z,88.42
2019-02-16T23:58:14.940Z,87.55
